Time;durP1;ratioP1;P1;durP2;ratioP2;P2;SDS_P1;SDS_P2;PMS_P1;PMS_P2;Temp;Humidity;BMP_temperature;BMP_pressure;BME280_temperature;BME280_humidity;BME280_pressure;Samples;Min_cycle;Max_cycle;Signal;HPM_P1;HPM_P2
2023/07/29 00:01:31;;;;;;;9.85;2.70;;;18.60;99.90;;;;;;5132655;27;20498;-75
2023/07/29 00:03:57;;;;;;;7.05;2.10;;;18.60;99.90;;;;;;5130453;27;20039;-75
2023/07/29 00:06:23;;;;;;;8.30;2.28;;;18.60;99.90;;;;;;5118092;27;20023;-75
2023/07/29 00:08:49;;;;;;;7.28;2.13;;;18.50;99.90;;;;;;5132636;27;20016;-75
2023/07/29 00:11:14;;;;;;;6.57;2.10;;;18.50;99.90;;;;;;5126350;27;20503;-75
2023/07/29 00:13:40;;;;;;;6.75;2.13;;;18.50;99.90;;;;;;5121653;27;20034;-75
2023/07/29 00:16:06;;;;;;;5.40;2.20;;;18.50;99.90;;;;;;5128239;27;20544;-75
2023/07/29 00:18:32;;;;;;;6.47;2.10;;;18.40;99.90;;;;;;5130270;27;20027;-75
2023/07/29 00:20:58;;;;;;;5.53;2.00;;;18.40;99.90;;;;;;5132270;27;20415;-75
2023/07/29 00:23:23;;;;;;;4.97;2.33;;;18.30;99.90;;;;;;5131746;27;20467;-75
2023/07/29 00:25:49;;;;;;;5.68;2.17;;;18.30;99.90;;;;;;5132173;27;20019;-75
2023/07/29 00:28:15;;;;;;;8.02;2.30;;;18.20;99.90;;;;;;5131873;27;20106;-75
2023/07/29 00:30:40;;;;;;;3.30;1.98;;;18.20;99.90;;;;;;5132098;27;20032;-75
2023/07/29 00:33:06;;;;;;;5.93;2.13;;;18.20;99.90;;;;;;5117679;27;20453;-75
2023/07/29 00:35:32;;;;;;;5.07;2.05;;;18.10;99.90;;;;;;5132061;27;20021;-75
2023/07/29 00:37:57;;;;;;;8.02;2.30;;;18.10;99.90;;;;;;5132140;27;20030;-74
2023/07/29 00:40:23;;;;;;;7.93;2.30;;;18.10;99.90;;;;;;5132348;27;20015;-74
2023/07/29 00:42:50;;;;;;;6.90;2.53;;;18.10;99.90;;;;;;5131877;27;20051;-74
2023/07/29 00:45:16;;;;;;;7.45;2.25;;;18.00;99.90;;;;;;5128280;27;20027;-74
2023/07/29 00:47:43;;;;;;;5.55;2.40;;;18.00;99.90;;;;;;5124143;27;20026;-74
2023/07/29 00:50:11;;;;;;;5.95;2.58;;;18.00;99.90;;;;;;5132968;27;20121;-74
2023/07/29 00:52:37;;;;;;;7.18;2.50;;;18.00;99.90;;;;;;5131564;27;20043;-75
2023/07/29 00:55:04;;;;;;;4.93;2.28;;;18.00;99.90;;;;;;5131846;27;20388;-74
2023/07/29 00:57:30;;;;;;;7.28;2.55;;;17.90;99.90;;;;;;5131162;27;20504;-75
2023/07/29 00:59:56;;;;;;;6.35;2.38;;;17.90;99.90;;;;;;5120844;27;20099;-75
2023/07/29 01:02:22;;;;;;;8.32;2.85;;;17.90;99.90;;;;;;5128700;27;20020;-75
2023/07/29 01:04:56;;;;;;;6.10;2.47;;;17.90;99.90;;;;;;5106604;27;20027;-75
2023/07/29 01:07:35;;;;;;;6.00;2.75;;;17.90;99.90;;;;;;5128221;27;20019;-75
2023/07/29 01:10:18;;;;;;;7.13;2.67;;;17.90;99.90;;;;;;5131599;27;20030;-75
2023/07/29 01:13:14;;;;;;;4.80;2.60;;;17.90;99.90;;;;;;5127390;27;20047;-75
2023/07/29 01:16:00;;;;;;;5.53;2.45;;;17.90;99.90;;;;;;5125013;27;20054;-75
2023/07/29 01:18:31;;;;;;;11.60;2.92;;;17.90;99.90;;;;;;5121964;27;20476;-75
2023/07/29 01:21:01;;;;;;;5.38;2.67;;;17.80;99.90;;;;;;5127090;27;20487;-75
2023/07/29 01:23:31;;;;;;;8.73;2.70;;;17.80;99.90;;;;;;5131284;27;20076;-75
2023/07/29 01:25:57;;;;;;;11.23;2.88;;;17.80;99.90;;;;;;5123144;27;20030;-75
2023/07/29 01:28:23;;;;;;;7.13;2.83;;;17.80;99.90;;;;;;5131139;28;20019;-75
2023/07/29 01:30:57;;;;;;;7.72;2.67;;;17.80;99.90;;;;;;5123218;28;20017;-75
2023/07/29 01:33:26;;;;;;;6.78;2.67;;;17.90;99.90;;;;;;5119219;28;20028;-75
2023/07/29 01:36:01;;;;;;;4.30;2.38;;;17.80;99.90;;;;;;5126083;28;20080;-75
2023/07/29 01:38:35;;;;;;;7.88;2.60;;;17.90;99.90;;;;;;5131409;27;20038;-74
2023/07/29 01:41:07;;;;;;;8.23;2.83;;;17.80;99.90;;;;;;5134701;27;20027;-75
2023/07/29 01:43:33;;;;;;;5.32;2.60;;;17.80;99.90;;;;;;5128202;27;20020;-75
2023/07/29 01:46:00;;;;;;;8.38;2.97;;;17.80;99.90;;;;;;5130427;27;20019;-75
2023/07/29 01:48:27;;;;;;;7.68;3.03;;;17.80;99.90;;;;;;5117386;27;20047;-75
2023/07/29 01:50:53;;;;;;;7.75;2.97;;;17.80;99.90;;;;;;5135170;27;20027;-74
2023/07/29 01:53:18;;;;;;;7.43;2.78;;;17.80;99.90;;;;;;5135240;27;20021;-75
2023/07/29 01:55:44;;;;;;;6.53;2.90;;;17.80;99.90;;;;;;5129930;27;20031;-75
2023/07/29 01:58:10;;;;;;;7.75;3.05;;;17.70;99.90;;;;;;5130693;27;20452;-75
2023/07/29 02:00:36;;;;;;;6.70;2.90;;;17.70;99.90;;;;;;5127920;27;20100;-75
2023/07/29 02:03:02;;;;;;;9.10;3.00;;;17.70;99.90;;;;;;5129706;27;20058;-75
2023/07/29 02:05:27;;;;;;;7.22;3.10;;;17.70;99.90;;;;;;5126099;27;20023;-75
2023/07/29 02:07:53;;;;;;;5.65;2.78;;;17.60;99.90;;;;;;5137455;27;20012;-74
2023/07/29 02:10:19;;;;;;;7.72;3.30;;;17.60;99.90;;;;;;5126428;27;20018;-75
2023/07/29 02:12:44;;;;;;;5.45;2.88;;;17.60;99.90;;;;;;5135564;27;20027;-75
2023/07/29 02:15:10;;;;;;;7.15;3.40;;;17.60;99.90;;;;;;5116539;27;20027;-75
2023/07/29 02:17:36;;;;;;;9.45;3.40;;;17.60;99.90;;;;;;5129406;27;20079;-75
2023/07/29 02:20:03;;;;;;;6.80;3.28;;;17.60;99.90;;;;;;5129820;27;20506;-75
2023/07/29 02:22:29;;;;;;;6.68;2.85;;;17.60;99.90;;;;;;5131085;27;20479;-75
2023/07/29 02:24:55;;;;;;;9.93;3.40;;;17.60;99.90;;;;;;5116323;27;20047;-75
2023/07/29 02:27:21;;;;;;;7.68;3.17;;;17.60;99.90;;;;;;5134024;27;20095;-75
2023/07/29 02:29:46;;;;;;;7.47;3.10;;;17.60;99.90;;;;;;5134320;27;20517;-75
2023/07/29 02:32:12;;;;;;;6.47;3.00;;;17.60;99.90;;;;;;5134345;27;20019;-75
2023/07/29 02:34:38;;;;;;;8.55;3.20;;;17.50;99.90;;;;;;5128096;27;20035;-75
2023/07/29 02:37:03;;;;;;;5.70;2.78;;;17.60;99.90;;;;;;5129464;27;20024;-75
2023/07/29 02:39:29;;;;;;;9.20;3.25;;;17.50;99.90;;;;;;5134652;27;20051;-75
2023/07/29 02:41:55;;;;;;;6.78;3.10;;;17.50;99.90;;;;;;5132758;27;20083;-75
2023/07/29 02:44:21;;;;;;;8.05;3.25;;;17.50;99.90;;;;;;5130884;27;20077;-75
2023/07/29 02:46:47;;;;;;;6.78;2.88;;;17.50;99.90;;;;;;5127274;27;20047;-75
2023/07/29 02:49:12;;;;;;;8.13;3.30;;;17.50;99.90;;;;;;5129231;27;20026;-75
2023/07/29 02:51:38;;;;;;;5.93;2.92;;;17.50;99.90;;;;;;5117857;27;20169;-75
2023/07/29 02:54:04;;;;;;;9.10;3.10;;;17.50;99.90;;;;;;5131332;27;20030;-75
2023/07/29 02:56:30;;;;;;;7.78;3.00;;;17.50;99.90;;;;;;5133925;27;20070;-75
2023/07/29 02:58:56;;;;;;;6.22;2.75;;;17.50;99.90;;;;;;5134313;27;20416;-75
2023/07/29 03:01:24;;;;;;;7.13;3.47;;;17.50;99.90;;;;;;5134766;27;20090;-75
2023/07/29 03:03:51;;;;;;;11.00;3.45;;;17.50;99.90;;;;;;5133446;27;20023;-75
2023/07/29 03:06:16;;;;;;;9.52;3.40;;;17.50;99.90;;;;;;5130846;27;20016;-75
2023/07/29 03:08:42;;;;;;;8.30;3.28;;;17.50;99.90;;;;;;5133586;27;20380;-75
2023/07/29 03:11:13;;;;;;;7.93;3.40;;;17.50;99.90;;;;;;5133910;27;20022;-75
2023/07/29 03:13:38;;;;;;;7.93;3.50;;;17.40;99.90;;;;;;5133314;27;20023;-75
2023/07/29 03:16:09;;;;;;;7.72;3.22;;;17.40;99.90;;;;;;5133596;27;20506;-75
2023/07/29 03:18:35;;;;;;;8.80;3.42;;;17.40;99.90;;;;;;5131487;27;20064;-75
2023/07/29 03:21:01;;;;;;;8.82;3.20;;;17.50;99.90;;;;;;5133695;27;20413;-75
2023/07/29 03:23:28;;;;;;;10.07;3.53;;;17.50;99.90;;;;;;5131091;27;20118;-75
2023/07/29 03:25:58;;;;;;;10.05;3.35;;;17.50;99.90;;;;;;5126498;27;20086;-75
2023/07/29 03:28:30;;;;;;;11.88;4.00;;;17.50;99.90;;;;;;5128136;27;20025;-75
2023/07/29 03:30:56;;;;;;;10.35;3.63;;;17.60;99.90;;;;;;5126793;27;20024;-75
2023/07/29 03:33:23;;;;;;;10.85;3.60;;;17.60;99.90;;;;;;5129058;27;20023;-74
2023/07/29 03:35:49;;;;;;;8.85;4.10;;;17.60;99.90;;;;;;5130955;27;20023;-75
2023/07/29 03:38:14;;;;;;;7.82;3.80;;;17.60;99.90;;;;;;5123107;27;20360;-75
2023/07/29 03:40:41;;;;;;;10.75;3.58;;;17.70;99.90;;;;;;5133000;27;20061;-75
2023/07/29 03:43:07;;;;;;;8.25;3.92;;;17.60;99.90;;;;;;5132825;27;20023;-75
2023/07/29 03:45:33;;;;;;;10.35;4.10;;;17.70;99.90;;;;;;5132592;27;20063;-75
2023/07/29 03:47:59;;;;;;;8.43;4.07;;;17.60;99.90;;;;;;5132752;27;20019;-75
2023/07/29 03:50:25;;;;;;;8.98;4.40;;;17.70;99.90;;;;;;5132675;27;20531;-75
2023/07/29 03:52:50;;;;;;;10.00;4.40;;;17.60;99.90;;;;;;5124568;27;20154;-75
2023/07/29 03:55:16;;;;;;;12.75;4.80;;;17.70;99.90;;;;;;5132433;27;20055;-75
2023/07/29 03:57:42;;;;;;;11.90;4.60;;;17.70;99.90;;;;;;5132468;27;20023;-75
2023/07/29 04:00:08;;;;;;;11.93;5.10;;;17.70;99.90;;;;;;5127986;27;20031;-75
2023/07/29 04:02:37;;;;;;;9.30;4.82;;;17.70;99.90;;;;;;5132267;27;20019;-75
2023/07/29 04:05:03;;;;;;;12.98;5.10;;;17.70;99.90;;;;;;5132245;27;20039;-75
2023/07/29 04:07:29;;;;;;;11.80;4.90;;;17.70;99.90;;;;;;5132818;27;20494;-75
2023/07/29 04:09:55;;;;;;;11.77;4.75;;;17.70;99.90;;;;;;5114122;27;20047;-75
2023/07/29 04:12:21;;;;;;;12.85;5.18;;;17.70;99.90;;;;;;5123593;27;20066;-75
2023/07/29 04:14:47;;;;;;;11.55;5.53;;;17.70;99.90;;;;;;5115639;27;20015;-75
2023/07/29 04:17:13;;;;;;;11.10;4.78;;;17.70;99.90;;;;;;5122237;27;20423;-75
2023/07/29 04:19:38;;;;;;;10.25;4.93;;;17.70;99.90;;;;;;5132401;27;20072;-75
2023/07/29 04:22:04;;;;;;;11.68;4.75;;;17.70;99.90;;;;;;5132305;27;20094;-75
2023/07/29 04:24:30;;;;;;;12.32;5.28;;;17.70;99.90;;;;;;5124955;27;20030;-75
2023/07/29 04:26:55;;;;;;;11.93;5.25;;;17.70;99.90;;;;;;5125513;27;20023;-75
2023/07/29 04:29:22;;;;;;;13.27;5.25;;;17.70;99.90;;;;;;5113114;27;20054;-75
2023/07/29 04:31:49;;;;;;;13.70;5.25;;;17.70;99.90;;;;;;5126399;27;20030;-75
2023/07/29 04:34:14;;;;;;;12.63;5.50;;;17.70;99.90;;;;;;5128982;27;20135;-75
2023/07/29 04:36:40;;;;;;;13.20;5.30;;;17.70;99.90;;;;;;5132271;27;20055;-75
2023/07/29 04:39:05;;;;;;;11.05;6.07;;;17.70;99.90;;;;;;5131829;27;20491;-75
2023/07/29 04:41:31;;;;;;;13.35;6.10;;;17.70;99.90;;;;;;5131919;27;20064;-75
2023/07/29 04:43:57;;;;;;;11.07;6.07;;;17.70;99.90;;;;;;5132006;27;20498;-75
2023/07/29 04:46:22;;;;;;;12.10;6.43;;;17.70;99.90;;;;;;5131941;27;20015;-75
2023/07/29 04:48:48;;;;;;;16.83;6.30;;;17.70;99.90;;;;;;5122408;27;20016;-75
2023/07/29 04:51:14;;;;;;;14.15;6.55;;;17.70;99.90;;;;;;5131504;27;20496;-75
2023/07/29 04:53:39;;;;;;;15.32;6.68;;;17.70;99.90;;;;;;5130568;27;20286;-75
2023/07/29 04:56:05;;;;;;;14.52;6.50;;;17.70;99.90;;;;;;5119652;27;20395;-75
2023/07/29 04:58:34;;;;;;;14.18;6.43;;;17.70;99.90;;;;;;5133355;27;20118;-75
2023/07/29 05:01:00;;;;;;;12.20;6.15;;;17.70;99.90;;;;;;5137831;27;20026;-75
2023/07/29 05:03:26;;;;;;;11.20;6.30;;;17.70;99.90;;;;;;5142638;27;20019;-75
2023/07/29 05:05:53;;;;;;;13.75;5.93;;;17.70;99.90;;;;;;5129378;27;20027;-75
2023/07/29 05:08:19;;;;;;;16.38;6.50;;;17.70;99.90;;;;;;5131688;27;20013;-75
2023/07/29 05:10:48;;;;;;;11.93;6.10;;;17.70;99.90;;;;;;5131723;27;20021;-75
2023/07/29 05:13:13;;;;;;;13.10;6.20;;;17.70;99.90;;;;;;5131551;27;20027;-75
2023/07/29 05:15:39;;;;;;;12.63;5.57;;;17.80;99.90;;;;;;5123150;27;20050;-75
2023/07/29 05:18:05;;;;;;;15.10;6.47;;;17.80;99.90;;;;;;5127496;27;20058;-75
2023/07/29 05:20:30;;;;;;;11.90;5.90;;;17.80;99.90;;;;;;5131376;27;20086;-75
2023/07/29 05:22:56;;;;;;;17.15;6.20;;;17.80;99.90;;;;;;5131350;27;20023;-75
2023/07/29 05:25:21;;;;;;;13.90;6.15;;;17.80;99.90;;;;;;5130971;27;20365;-75
2023/07/29 05:27:47;;;;;;;13.80;5.70;;;17.90;99.90;;;;;;5131276;27;20077;-75
2023/07/29 05:30:13;;;;;;;12.10;6.22;;;17.90;99.90;;;;;;5129428;28;20024;-75
2023/07/29 05:32:38;;;;;;;14.95;6.40;;;17.90;99.90;;;;;;5127676;28;20042;-75
2023/07/29 05:35:04;;;;;;;14.60;6.43;;;17.90;99.90;;;;;;5121192;28;20043;-75
2023/07/29 05:37:30;;;;;;;14.75;6.22;;;18.00;99.90;;;;;;5128425;28;20042;-75
2023/07/29 05:39:55;;;;;;;14.07;6.05;;;18.00;99.90;;;;;;5131252;28;20398;-75
2023/07/29 05:42:21;;;;;;;16.67;6.07;;;18.00;99.90;;;;;;5131193;28;20386;-75
2023/07/29 05:44:47;;;;;;;7.97;5.20;;;18.00;99.90;;;;;;5131042;28;20026;-75
2023/07/29 05:47:12;;;;;;;12.43;5.75;;;18.10;99.90;;;;;;5123305;28;20015;-75
2023/07/29 05:49:38;;;;;;;14.02;6.07;;;18.10;99.90;;;;;;5127293;28;20024;-75
2023/07/29 05:52:04;;;;;;;14.52;6.10;;;18.10;99.90;;;;;;5126041;28;20124;-75
2023/07/29 05:54:29;;;;;;;14.20;5.30;;;18.20;99.90;;;;;;5128965;28;20115;-75
2023/07/29 05:56:55;;;;;;;13.32;5.28;;;18.20;99.90;;;;;;5126440;28;20026;-75
2023/07/29 05:59:21;;;;;;;14.27;5.47;;;18.20;99.90;;;;;;5131081;28;20019;-75
2023/07/29 06:01:46;;;;;;;8.63;5.05;;;18.20;99.90;;;;;;5130795;28;20025;-75
2023/07/29 06:04:12;;;;;;;15.25;5.10;;;18.20;99.90;;;;;;5130995;28;20037;-75
2023/07/29 06:06:37;;;;;;;10.52;4.70;;;18.30;99.90;;;;;;5130947;28;20379;-75
2023/07/29 06:09:03;;;;;;;11.60;4.90;;;18.30;99.90;;;;;;5130486;28;20025;-75
2023/07/29 06:11:29;;;;;;;12.10;4.50;;;18.40;99.90;;;;;;5130822;28;20047;-75
2023/07/29 06:13:54;;;;;;;14.45;4.18;;;18.40;99.90;;;;;;5130844;28;20383;-75
2023/07/29 06:16:20;;;;;;;11.10;4.47;;;18.40;99.90;;;;;;5130962;28;20356;-75
2023/07/29 06:18:46;;;;;;;14.43;4.95;;;18.40;99.90;;;;;;5130902;28;20023;-75
2023/07/29 06:21:16;;;;;;;12.63;5.18;;;18.40;99.90;;;;;;5130802;28;20111;-75
2023/07/29 06:23:43;;;;;;;12.70;5.00;;;18.50;99.90;;;;;;5130889;28;20027;-75
2023/07/29 06:26:09;;;;;;;10.05;4.25;;;18.50;99.90;;;;;;5133067;27;20026;-75
2023/07/29 06:28:34;;;;;;;12.18;4.47;;;18.50;99.90;;;;;;5132183;27;20380;-75
2023/07/29 06:31:00;;;;;;;14.15;4.25;;;18.60;99.90;;;;;;5125734;27;20030;-75
2023/07/29 06:33:25;;;;;;;12.05;3.90;;;18.60;99.90;;;;;;5121981;27;20032;-75
2023/07/29 06:35:51;;;;;;;15.65;4.30;;;18.70;99.90;;;;;;5132984;27;20066;-75
2023/07/29 06:38:21;;;;;;;10.13;3.55;;;18.70;99.90;;;;;;5134544;27;20023;-75
2023/07/29 06:40:47;;;;;;;9.60;3.08;;;18.70;99.90;;;;;;5134656;27;20398;-75
2023/07/29 06:43:13;;;;;;;6.90;2.80;;;18.80;99.90;;;;;;5127369;27;20031;-75
2023/07/29 06:45:38;;;;;;;10.30;2.65;;;18.80;99.90;;;;;;5131621;27;20015;-75
2023/07/29 06:48:04;;;;;;;12.43;2.75;;;18.90;99.90;;;;;;5125897;27;20026;-75
2023/07/29 06:50:30;;;;;;;7.60;2.60;;;18.90;99.90;;;;;;5134315;27;20028;-75
2023/07/29 06:52:55;;;;;;;7.85;2.25;;;19.00;99.90;;;;;;5134651;27;20047;-75
2023/07/29 06:55:21;;;;;;;8.10;2.40;;;19.00;99.90;;;;;;5134551;27;20023;-75
2023/07/29 06:57:47;;;;;;;8.00;2.53;;;19.10;99.90;;;;;;5134223;27;20369;-75
2023/07/29 07:00:12;;;;;;;10.52;2.25;;;19.10;99.90;;;;;;5116985;27;20025;-75
2023/07/29 07:02:38;;;;;;;8.15;1.90;;;19.10;99.90;;;;;;5131024;27;20386;-75
2023/07/29 07:05:04;;;;;;;10.07;2.35;;;19.10;99.90;;;;;;5134273;27;20033;-75
2023/07/29 07:07:30;;;;;;;6.95;2.40;;;19.10;99.90;;;;;;5132902;27;20020;-75
2023/07/29 07:09:56;;;;;;;8.32;2.15;;;19.10;99.90;;;;;;5134126;27;20109;-75
2023/07/29 07:12:22;;;;;;;10.80;2.97;;;19.20;99.90;;;;;;5134279;27;20034;-75
2023/07/29 07:14:48;;;;;;;8.50;2.40;;;19.30;99.90;;;;;;5133627;27;20051;-75
2023/07/29 07:17:13;;;;;;;8.82;2.08;;;19.30;99.90;;;;;;5133954;27;20023;-75
2023/07/29 07:19:39;;;;;;;6.95;2.10;;;19.50;99.90;;;;;;5133772;27;20019;-75
2023/07/29 07:22:05;;;;;;;11.65;2.30;;;19.60;99.90;;;;;;5124381;27;20011;-76
2023/07/29 07:24:31;;;;;;;5.07;1.90;;;19.70;99.90;;;;;;5134038;27;20020;-75
2023/07/29 07:26:56;;;;;;;6.88;1.95;;;19.80;99.90;;;;;;5115448;27;20372;-75
2023/07/29 07:29:22;;;;;;;8.75;2.00;;;19.90;99.90;;;;;;5128129;27;20019;-75
2023/07/29 07:31:53;;;;;;;12.35;2.33;;;19.90;99.90;;;;;;5132656;27;20023;-75
2023/07/29 07:34:20;;;;;;;10.68;2.20;;;19.90;99.90;;;;;;5130987;27;20047;-75
2023/07/29 07:36:45;;;;;;;6.47;1.88;;;19.90;99.90;;;;;;5133885;27;20034;-75
2023/07/29 07:39:11;;;;;;;6.78;2.40;;;19.80;99.90;;;;;;5133380;27;20383;-75
2023/07/29 07:41:37;;;;;;;10.93;2.35;;;19.80;99.90;;;;;;5133868;27;20092;-75
2023/07/29 07:44:03;;;;;;;13.13;2.20;;;19.80;99.90;;;;;;5133131;27;20358;-75
2023/07/29 07:46:29;;;;;;;6.43;1.88;;;19.80;99.90;;;;;;5133631;27;20012;-76
2023/07/29 07:48:54;;;;;;;6.72;2.10;;;19.90;99.90;;;;;;5123449;27;20015;-76
2023/07/29 07:51:20;;;;;;;6.30;2.10;;;20.00;99.90;;;;;;5133073;27;20392;-75
2023/07/29 07:53:46;;;;;;;8.40;2.42;;;20.10;99.90;;;;;;5134318;27;20027;-75
2023/07/29 07:56:11;;;;;;;9.27;1.95;;;20.10;99.90;;;;;;5137975;27;20032;-75
2023/07/29 07:58:38;;;;;;;8.15;2.03;;;20.20;99.90;;;;;;5141826;27;20483;-75
2023/07/29 08:01:05;;;;;;;8.77;2.20;;;20.40;99.90;;;;;;5134254;27;20015;-75
2023/07/29 08:03:31;;;;;;;7.28;2.08;;;20.50;99.90;;;;;;5132966;27;20019;-75
2023/07/29 08:05:57;;;;;;;4.60;1.92;;;20.60;99.90;;;;;;5133039;27;20053;-75
2023/07/29 08:08:23;;;;;;;5.93;1.80;;;20.70;99.90;;;;;;5132519;27;20027;-75
2023/07/29 08:10:48;;;;;;;5.32;1.80;;;20.80;99.90;;;;;;5132823;27;20098;-75
2023/07/29 08:13:14;;;;;;;9.27;2.00;;;20.90;99.90;;;;;;5132222;27;20022;-75
2023/07/29 08:15:41;;;;;;;4.43;1.80;;;20.90;99.90;;;;;;5132695;27;20027;-75
2023/07/29 08:18:07;;;;;;;3.13;1.52;;;21.00;99.90;;;;;;5132758;27;20023;-75
2023/07/29 08:20:32;;;;;;;4.95;1.98;;;21.00;99.90;;;;;;5132922;27;20015;-75
2023/07/29 08:22:58;;;;;;;5.13;1.80;;;21.00;99.90;;;;;;5113794;27;20030;-75
2023/07/29 08:25:24;;;;;;;5.85;1.80;;;21.00;99.90;;;;;;5126267;27;20376;-75
2023/07/29 08:27:50;;;;;;;4.00;1.88;;;21.00;99.90;;;;;;5132147;27;20031;-75
2023/07/29 08:30:16;;;;;;;6.20;2.10;;;21.00;99.90;;;;;;5132425;27;20023;-75
2023/07/29 08:32:42;;;;;;;7.00;2.00;;;21.00;99.90;;;;;;5132401;27;20019;-75
2023/07/29 08:35:08;;;;;;;11.77;2.30;;;21.00;99.90;;;;;;5132019;27;20043;-75
2023/07/29 08:37:33;;;;;;;6.22;2.10;;;21.00;99.90;;;;;;5132185;27;20068;-75
2023/07/29 08:39:59;;;;;;;7.22;2.22;;;21.00;99.90;;;;;;5132279;27;20012;-75
2023/07/29 08:42:30;;;;;;;4.22;1.92;;;21.00;99.90;;;;;;5131918;27;20065;-75
2023/07/29 08:44:59;;;;;;;5.93;2.30;;;20.90;99.90;;;;;;5132206;27;20019;-74
2023/07/29 08:47:24;;;;;;;9.13;2.30;;;20.90;99.90;;;;;;5122337;27;20102;-75
2023/07/29 08:49:51;;;;;;;6.47;2.38;;;20.80;99.90;;;;;;5125686;27;20438;-74
2023/07/29 08:52:18;;;;;;;8.75;2.50;;;20.60;99.90;;;;;;5128879;27;20066;-75
2023/07/29 08:54:44;;;;;;;11.75;2.88;;;20.50;99.90;;;;;;5131652;27;20026;-74
2023/07/29 08:57:10;;;;;;;6.72;2.60;;;20.40;99.90;;;;;;5131891;27;20024;-74
2023/07/29 08:59:50;;;;;;;7.25;2.70;;;20.30;99.90;;;;;;5083878;28;20440;-73
2023/07/29 09:02:16;;;;;;;7.38;2.60;;;20.20;99.90;;;;;;5057573;28;20020;-75
2023/07/29 09:04:42;;;;;;;7.43;2.78;;;20.20;99.90;;;;;;5067410;28;20024;-76
2023/07/29 09:07:09;;;;;;;7.78;3.00;;;20.20;99.90;;;;;;5066705;28;20025;-76
2023/07/29 09:09:35;;;;;;;6.82;3.03;;;20.20;99.90;;;;;;5067622;28;20023;-76
2023/07/29 09:12:01;;;;;;;8.95;3.55;;;20.20;99.90;;;;;;5061591;28;20022;-76
2023/07/29 09:14:27;;;;;;;7.60;3.30;;;20.30;99.90;;;;;;5061049;28;20405;-74
2023/07/29 09:16:53;;;;;;;5.60;2.55;;;20.30;99.90;;;;;;5067548;28;20020;-76
2023/07/29 09:19:19;;;;;;;7.85;2.90;;;20.40;99.90;;;;;;5058001;28;20500;-76
2023/07/29 09:21:46;;;;;;;7.28;2.67;;;20.40;99.90;;;;;;5056690;28;20024;-76
2023/07/29 09:24:15;;;;;;;5.85;2.72;;;20.50;99.90;;;;;;5061623;28;20056;-76
2023/07/29 09:26:49;;;;;;;6.50;2.95;;;20.50;99.90;;;;;;5060920;28;20070;-76
2023/07/29 09:29:15;;;;;;;7.07;2.83;;;20.60;99.90;;;;;;5060662;28;20376;-76
2023/07/29 09:31:40;;;;;;;6.18;2.83;;;20.70;99.90;;;;;;5063100;28;20028;-76
2023/07/29 09:34:06;;;;;;;7.03;2.85;;;20.70;99.90;;;;;;5066837;28;20045;-76
2023/07/29 09:36:33;;;;;;;5.55;2.65;;;20.70;99.90;;;;;;5068128;28;20025;-76
2023/07/29 09:38:59;;;;;;;6.75;2.90;;;20.70;99.90;;;;;;5067125;28;20028;-76
2023/07/29 09:41:26;;;;;;;5.18;2.88;;;20.70;99.90;;;;;;5056542;28;20101;-76
2023/07/29 09:44:00;;;;;;;6.45;2.33;;;20.70;99.90;;;;;;5058087;28;20025;-76
2023/07/29 09:46:35;;;;;;;5.80;2.63;;;20.70;99.90;;;;;;5066982;28;20353;-76
2023/07/29 09:49:05;;;;;;;6.80;2.22;;;20.60;99.90;;;;;;5066870;28;20017;-76
2023/07/29 09:51:31;;;;;;;5.93;2.00;;;20.60;99.90;;;;;;5066556;28;20020;-76
2023/07/29 09:53:58;;;;;;;7.53;2.53;;;20.60;99.90;;;;;;5066421;28;20069;-76
2023/07/29 09:56:29;;;;;;;6.60;1.73;;;20.60;99.90;;;;;;5062012;28;20053;-76
2023/07/29 09:58:58;;;;;;;3.83;1.90;;;20.70;99.90;;;;;;5065019;28;20048;-76
2023/07/29 10:01:24;;;;;;;4.20;2.10;;;20.80;99.90;;;;;;5066366;28;20021;-77
2023/07/29 10:03:49;;;;;;;6.50;2.00;;;20.80;99.90;;;;;;5066111;28;20096;-76
2023/07/29 10:06:16;;;;;;;5.60;2.08;;;20.80;99.90;;;;;;5066184;28;20020;-76
2023/07/29 10:08:43;;;;;;;3.20;1.80;;;20.80;99.90;;;;;;5066307;28;20024;-76
2023/07/29 10:11:10;;;;;;;4.38;1.73;;;20.80;99.90;;;;;;5052313;28;20100;-76
2023/07/29 10:13:36;;;;;;;3.95;1.83;;;20.80;99.90;;;;;;5053227;28;20021;-76
2023/07/29 10:16:03;;;;;;;2.72;1.52;;;20.70;99.90;;;;;;5040546;28;20109;-76
2023/07/29 10:18:30;;;;;;;5.88;1.60;;;20.60;99.90;;;;;;5051780;28;20469;-76
2023/07/29 10:20:59;;;;;;;3.78;1.42;;;20.50;99.90;;;;;;5052877;28;20021;-76
2023/07/29 10:23:26;;;;;;;3.55;1.35;;;20.40;99.90;;;;;;5042094;28;20106;-76
2023/07/29 10:26:05;;;;;;;2.85;1.00;;;20.30;99.90;;;;;;5052887;28;20480;-76
2023/07/29 10:28:32;;;;;;;4.85;1.38;;;20.20;99.90;;;;;;5045594;28;20361;-76
2023/07/29 10:30:59;;;;;;;2.20;1.10;;;20.10;99.90;;;;;;5053544;28;20021;-75
2023/07/29 10:33:25;;;;;;;5.47;1.30;;;20.10;99.90;;;;;;5052873;28;20028;-75
2023/07/29 10:35:52;;;;;;;4.35;1.00;;;20.10;99.90;;;;;;5052360;28;20423;-76
2023/07/29 10:38:21;;;;;;;3.22;0.95;;;20.00;99.90;;;;;;5052577;28;20071;-75
2023/07/29 10:40:50;;;;;;;5.13;1.05;;;19.90;99.90;;;;;;5052381;28;20112;-75
2023/07/29 10:43:27;;;;;;;1.73;0.80;;;19.80;99.90;;;;;;5052692;28;20096;-75
2023/07/29 10:45:54;;;;;;;2.90;1.25;;;19.80;99.90;;;;;;5051649;28;20100;-76
2023/07/29 10:48:34;;;;;;;3.60;1.35;;;19.80;99.90;;;;;;5047504;28;20353;-76
2023/07/29 10:51:22;;;;;;;5.65;1.75;;;19.80;99.90;;;;;;5067320;28;20025;-75
2023/07/29 10:53:47;;;;;;;3.35;1.67;;;19.90;99.90;;;;;;5065959;28;20396;-75
2023/07/29 10:56:24;;;;;;;3.25;1.70;;;20.00;99.90;;;;;;5052827;28;20437;-75
2023/07/29 10:58:49;;;;;;;3.60;1.55;;;20.10;99.90;;;;;;5050331;28;20049;-75
2023/07/29 11:01:27;;;;;;;2.63;1.80;;;20.30;99.90;;;;;;5052560;28;20032;-75
2023/07/29 11:04:20;;;;;;;2.97;2.10;;;20.40;99.90;;;;;;5052046;28;20424;-75
2023/07/29 11:07:07;;;;;;;4.90;2.28;;;20.50;99.90;;;;;;5051923;28;20087;-75
2023/07/29 11:09:48;;;;;;;5.88;2.03;;;20.60;99.90;;;;;;5051419;28;20499;-75
2023/07/29 11:12:48;;;;;;;4.68;2.22;;;20.80;99.90;;;;;;5052376;28;20650;-75
2023/07/29 11:15:18;;;;;;;4.55;2.13;;;20.80;99.90;;;;;;5047497;28;20021;-75
2023/07/29 11:18:01;;;;;;;5.30;2.10;;;20.70;99.90;;;;;;5044943;28;20021;-75
2023/07/29 11:20:28;;;;;;;4.82;2.30;;;20.70;99.90;;;;;;5046768;28;20469;-75
2023/07/29 11:22:56;;;;;;;3.28;2.13;;;20.70;99.90;;;;;;5045955;28;20033;-75
2023/07/29 11:25:23;;;;;;;6.50;2.50;;;20.70;99.90;;;;;;5051792;28;20037;-75
2023/07/29 11:27:51;;;;;;;3.50;2.25;;;20.70;99.90;;;;;;5051521;28;20104;-75
2023/07/29 11:30:16;;;;;;;5.40;2.70;;;20.70;99.90;;;;;;5044870;28;20029;-75
2023/07/29 11:32:44;;;;;;;3.40;2.47;;;20.70;99.90;;;;;;5051741;28;20032;-75
2023/07/29 11:35:15;;;;;;;3.92;2.30;;;20.80;99.90;;;;;;5052356;28;20507;-75
2023/07/29 11:37:46;;;;;;;5.60;2.22;;;20.80;99.90;;;;;;5051471;28;20476;-75
2023/07/29 11:40:19;;;;;;;7.00;1.90;;;20.80;99.90;;;;;;5052106;28;20055;-75
2023/07/29 11:42:46;;;;;;;7.07;2.03;;;20.80;99.90;;;;;;5045549;28;20376;-75
2023/07/29 11:45:13;;;;;;;3.40;1.90;;;20.90;99.90;;;;;;5037785;28;20024;-75
2023/07/29 11:47:38;;;;;;;2.60;1.90;;;21.00;99.90;;;;;;5044400;28;20091;-75
2023/07/29 11:50:09;;;;;;;6.28;2.75;;;21.10;99.90;;;;;;5051988;28;20052;-75
2023/07/29 11:52:35;;;;;;;4.93;1.90;;;21.10;99.90;;;;;;5042981;28;20059;-75
2023/07/29 11:55:03;;;;;;;7.13;2.20;;;21.10;99.90;;;;;;5044176;28;20121;-75
2023/07/29 11:57:29;;;;;;;4.93;2.25;;;21.10;99.90;;;;;;5045120;28;20316;-75
2023/07/29 11:59:55;;;;;;;4.70;2.38;;;21.20;99.90;;;;;;5052122;28;20021;-75
2023/07/29 12:02:22;;;;;;;6.43;2.67;;;21.30;99.90;;;;;;5051349;28;20059;-75
2023/07/29 12:04:48;;;;;;;3.65;2.20;;;21.30;99.90;;;;;;5047925;28;20021;-75
2023/07/29 12:07:18;;;;;;;6.68;2.63;;;21.30;99.90;;;;;;5051139;28;20506;-75
2023/07/29 12:09:45;;;;;;;4.82;2.40;;;21.30;99.90;;;;;;5050626;28;20017;-75
2023/07/29 12:12:11;;;;;;;6.28;2.10;;;21.30;99.90;;;;;;5051825;28;20029;-75
2023/07/29 12:14:37;;;;;;;3.22;1.92;;;21.40;99.90;;;;;;5038302;28;20071;-75
2023/07/29 12:17:05;;;;;;;8.65;2.20;;;21.40;99.90;;;;;;5050642;28;20021;-75
2023/07/29 12:19:38;;;;;;;5.97;2.15;;;21.30;99.90;;;;;;5040344;28;20026;-75
2023/07/29 12:22:06;;;;;;;5.78;2.00;;;21.30;99.90;;;;;;5046410;28;20485;-75
2023/07/29 12:24:33;;;;;;;5.50;2.00;;;21.30;99.90;;;;;;5047307;28;20029;-75
2023/07/29 12:26:59;;;;;;;4.10;1.90;;;21.40;99.90;;;;;;5045231;28;20028;-75
2023/07/29 12:29:26;;;;;;;4.40;1.73;;;21.50;99.90;;;;;;5052319;28;20091;-75
2023/07/29 12:32:04;;;;;;;4.68;1.77;;;21.60;99.90;;;;;;5049140;28;20029;-75
2023/07/29 12:34:31;;;;;;;6.57;1.88;;;21.70;99.90;;;;;;5037868;28;20024;-76
2023/07/29 12:36:58;;;;;;;7.72;2.10;;;21.80;99.90;;;;;;5052652;28;20036;-76
2023/07/29 12:39:29;;;;;;;8.15;2.03;;;22.00;99.90;;;;;;5051257;28;20060;-76
2023/07/29 12:41:58;;;;;;;6.82;2.00;;;22.10;99.90;;;;;;5051558;28;20113;-76
2023/07/29 12:44:25;;;;;;;6.18;1.60;;;22.20;99.90;;;;;;5052791;28;20020;-75